createdAt,value
2016-11-14T00:00:27.481Z,0
2016-11-14T00:01:41.167Z,0
2016-11-14T00:02:53.817Z,0
2016-11-14T00:04:06.247Z,0
2016-11-14T00:05:18.665Z,0
2016-11-14T00:06:32.381Z,0
2016-11-14T00:07:44.798Z,0
2016-11-14T00:08:58.610Z,0
2016-11-14T00:10:12.327Z,0
2016-11-14T00:11:24.744Z,0
2016-11-14T00:12:38.449Z,0
2016-11-14T00:13:50.929Z,0
2016-11-14T00:15:04.625Z,0
2016-11-14T00:16:18.411Z,0
2016-11-14T00:17:30.973Z,0
2016-11-14T00:18:44.703Z,0
2016-11-14T00:19:58.394Z,0
2016-11-14T00:21:10.831Z,0
2016-11-14T00:22:24.777Z,0
2016-11-14T00:23:37.189Z,0
2016-11-14T00:24:50.911Z,0
2016-11-14T00:26:04.626Z,0
2016-11-14T00:27:18.327Z,0
2016-11-14T00:28:32.162Z,0
2016-11-14T00:29:44.573Z,0
2016-11-14T00:30:58.309Z,0
2016-11-14T00:32:10.713Z,0
2016-11-14T00:33:24.581Z,0
2016-11-14T00:34:38.269Z,0
2016-11-14T00:35:50.665Z,0
2016-11-14T00:37:01.788Z,0
2016-11-14T00:38:14.208Z,0
2016-11-14T00:39:28.030Z,0
2016-11-14T00:40:40.431Z,0
2016-11-14T00:41:52.895Z,0
2016-11-14T00:43:05.357Z,0
2016-11-14T00:44:17.872Z,0
2016-11-14T00:45:30.303Z,0
2016-11-14T00:46:44.059Z,0
2016-11-14T00:47:57.732Z,0
2016-11-14T00:49:08.852Z,0
2016-11-14T00:50:21.308Z,0
2016-11-14T00:51:33.808Z,0
2016-11-14T00:52:47.514Z,0
2016-11-14T00:54:01.261Z,0
2016-11-14T00:55:14.958Z,0
2016-11-14T00:56:28.656Z,0
2016-11-14T00:57:41.076Z,0
2016-11-14T00:58:54.794Z,0
2016-11-14T01:00:07.252Z,0
2016-11-14T01:01:20.944Z,0
2016-11-14T01:02:34.766Z,0
2016-11-14T01:03:48.484Z,0
2016-11-14T01:05:02.188Z,0
2016-11-14T01:06:15.917Z,0
2016-11-14T01:07:28.315Z,0
2016-11-14T01:08:40.952Z,0
2016-11-14T01:09:54.640Z,0
2016-11-14T01:11:07.035Z,0
2016-11-14T01:12:20.784Z,0
2016-11-14T01:13:34.521Z,0
2016-11-14T01:14:48.223Z,0
2016-11-14T01:16:00.638Z,0
2016-11-14T01:17:14.329Z,0
2016-11-14T01:18:26.755Z,0
2016-11-14T01:19:40.484Z,0
2016-11-14T01:20:52.874Z,0
2016-11-14T01:22:06.583Z,0
2016-11-14T01:23:18.982Z,0
2016-11-14T01:24:31.370Z,0
2016-11-14T01:26:13.446Z,0
2016-11-14T01:27:25.929Z,0
2016-11-14T01:28:39.645Z,0
2016-11-14T01:29:52.106Z,0
2016-11-14T01:31:05.792Z,0
2016-11-14T01:32:19.525Z,0
2016-11-14T01:34:02.943Z,0
2016-11-14T01:35:16.681Z,0
2016-11-14T01:36:30.373Z,0
2016-11-14T01:37:42.789Z,0
2016-11-14T01:38:55.187Z,0
2016-11-14T01:40:08.874Z,0
2016-11-14T01:41:21.323Z,0
2016-11-14T01:42:32.817Z,0
2016-11-14T01:43:46.520Z,0
2016-11-14T01:45:00.302Z,0
2016-11-14T01:46:13.983Z,0
2016-11-14T01:47:27.678Z,0
2016-11-14T01:48:41.599Z,0
2016-11-14T01:49:53.990Z,0
2016-11-14T01:51:07.724Z,0
2016-11-14T01:52:21.407Z,0
2016-11-14T01:53:35.129Z,0
2016-11-14T01:54:49.012Z,0
2016-11-14T01:56:02.719Z,0
2016-11-14T01:57:16.408Z,0
2016-11-14T01:58:30.137Z,0
2016-11-14T01:59:43.829Z,0
2016-11-14T02:00:57.522Z,0
2016-11-14T02:02:09.936Z,0
2016-11-14T02:03:22.572Z,0
2016-11-14T02:04:36.305Z,0
2016-11-14T02:05:50.027Z,0
2016-11-14T02:07:02.424Z,0
2016-11-14T02:08:16.123Z,0
2016-11-14T02:09:28.528Z,0
2016-11-14T02:10:42.214Z,0
2016-11-14T02:11:54.626Z,0
2016-11-14T02:13:08.324Z,0
2016-11-14T02:14:22.019Z,0
2016-11-14T02:15:35.702Z,0
2016-11-14T02:16:49.420Z,0
2016-11-14T02:18:01.846Z,0
2016-11-14T02:19:15.523Z,0
2016-11-14T02:20:29.465Z,0
2016-11-14T02:21:43.195Z,0
2016-11-14T02:22:56.899Z,0
2016-11-14T02:24:09.319Z,0
2016-11-14T02:25:23.046Z,0
2016-11-14T02:26:35.470Z,0
2016-11-14T02:27:49.228Z,0
2016-11-14T02:29:02.922Z,0
2016-11-14T02:30:16.616Z,0
2016-11-14T02:31:30.303Z,0
2016-11-14T02:32:44.017Z,0
2016-11-14T02:33:56.419Z,0
2016-11-14T02:35:10.435Z,0
2016-11-14T02:36:24.109Z,0
2016-11-14T02:37:37.821Z,0
2016-11-14T02:38:50.225Z,0
2016-11-14T02:40:02.889Z,0
2016-11-14T02:41:16.616Z,0
2016-11-14T02:42:29.020Z,0
2016-11-14T02:43:42.715Z,0
2016-11-14T02:44:55.128Z,0
2016-11-14T02:46:08.858Z,0
2016-11-14T02:47:21.315Z,0
2016-11-14T02:48:35.015Z,0
2016-11-14T02:49:48.720Z,0
2016-11-14T02:51:32.021Z,0
2016-11-14T02:52:45.738Z,0
2016-11-14T02:53:58.148Z,0
2016-11-14T02:55:11.828Z,0
2016-11-14T02:56:22.923Z,0
2016-11-14T02:57:36.614Z,0
2016-11-14T02:58:50.315Z,0
2016-11-14T03:00:02.939Z,0
2016-11-14T03:01:15.340Z,0
2016-11-14T03:02:29.046Z,0
2016-11-14T03:03:42.809Z,0
2016-11-14T03:04:56.589Z,0
2016-11-14T03:06:08.992Z,0
2016-11-14T03:07:22.677Z,0
2016-11-14T03:08:36.379Z,0
2016-11-14T03:09:48.799Z,0
2016-11-14T03:11:02.487Z,0
2016-11-14T03:12:14.892Z,0
2016-11-14T03:13:27.277Z,0
2016-11-14T03:14:40.956Z,0
2016-11-14T03:15:53.351Z,0
2016-11-14T03:17:07.186Z,0
2016-11-14T03:18:19.575Z,0
2016-11-14T03:19:32.061Z,0
2016-11-14T03:20:45.742Z,0
2016-11-14T03:21:58.149Z,0
2016-11-14T03:23:12.111Z,0
2016-11-14T03:24:23.314Z,0
2016-11-14T03:25:37.012Z,0
2016-11-14T03:26:48.128Z,0
2016-11-14T03:28:00.516Z,0
2016-11-14T03:29:14.212Z,0
2016-11-14T03:30:27.885Z,0
2016-11-14T03:31:41.561Z,0
2016-11-14T03:32:55.307Z,0
2016-11-14T03:34:07.710Z,0
2016-11-14T03:35:18.842Z,0
2016-11-14T03:36:31.236Z,0
2016-11-14T03:37:42.336Z,0
2016-11-14T03:38:56.027Z,0
2016-11-14T03:40:09.702Z,0
2016-11-14T03:41:22.104Z,0
2016-11-14T03:42:34.742Z,0
2016-11-14T03:43:45.942Z,0
2016-11-14T03:44:58.343Z,0
2016-11-14T03:46:10.747Z,0
2016-11-14T03:47:24.437Z,0
2016-11-14T03:48:38.143Z,0
2016-11-14T03:49:52.346Z,0
2016-11-14T03:51:06.040Z,0
2016-11-14T03:52:19.725Z,0
2016-11-14T03:53:33.421Z,0
2016-11-14T03:54:44.520Z,0
2016-11-14T03:55:58.231Z,0
2016-11-14T03:57:11.933Z,0
2016-11-14T03:58:25.651Z,0
2016-11-14T03:59:39.350Z,0
2016-11-14T04:00:51.761Z,0
2016-11-14T04:02:04.162Z,0
2016-11-14T04:03:16.599Z,0
2016-11-14T04:04:30.278Z,0
2016-11-14T04:05:43.986Z,0
2016-11-14T04:06:57.690Z,0
2016-11-14T04:08:11.397Z,0
2016-11-14T04:09:23.822Z,0
2016-11-14T04:10:37.521Z,0
2016-11-14T04:11:51.258Z,0
2016-11-14T04:13:04.977Z,0
2016-11-14T04:14:18.670Z,0
2016-11-14T04:15:32.360Z,0
2016-11-14T04:16:46.073Z,0
2016-11-14T04:17:59.784Z,0
2016-11-14T04:19:13.457Z,0
2016-11-14T04:20:27.143Z,0
2016-11-14T04:21:39.675Z,0
2016-11-14T04:22:52.073Z,0
2016-11-14T04:24:05.789Z,0
2016-11-14T04:25:19.491Z,0
2016-11-14T04:26:31.955Z,0
2016-11-14T04:27:45.653Z,0
2016-11-14T04:28:59.330Z,0
2016-11-14T04:30:11.730Z,0
2016-11-14T04:31:24.150Z,0
2016-11-14T04:32:37.936Z,0
2016-11-14T04:33:50.334Z,0
2016-11-14T04:35:04.061Z,0
2016-11-14T04:36:17.750Z,0
2016-11-14T04:37:31.432Z,0
2016-11-14T04:38:43.866Z,0
2016-11-14T04:39:57.571Z,0
2016-11-14T04:41:10.011Z,0
2016-11-14T04:42:22.397Z,0
2016-11-14T04:43:34.818Z,0
2016-11-14T04:44:47.235Z,0
2016-11-14T04:46:00.931Z,0
2016-11-14T04:47:14.616Z,0
2016-11-14T04:48:27.235Z,0
2016-11-14T04:49:39.666Z,0
2016-11-14T04:50:52.072Z,0
2016-11-14T04:52:03.188Z,0
2016-11-14T04:53:15.594Z,0
2016-11-14T04:54:28.003Z,0
2016-11-14T04:55:40.442Z,0
2016-11-14T04:56:54.128Z,0
2016-11-14T04:58:07.802Z,0
2016-11-14T04:59:21.499Z,0
2016-11-14T05:00:35.192Z,0
2016-11-14T05:01:47.605Z,0
2016-11-14T05:02:58.710Z,0
2016-11-14T05:04:12.419Z,0
2016-11-14T05:05:24.820Z,0
2016-11-14T05:06:38.525Z,0
2016-11-14T05:07:50.962Z,0
2016-11-14T05:09:04.662Z,0
2016-11-14T05:10:17.060Z,0
2016-11-14T05:11:30.773Z,0
2016-11-14T05:12:44.463Z,0
2016-11-14T05:13:58.164Z,0
2016-11-14T05:15:11.881Z,0
2016-11-14T05:16:25.565Z,0
2016-11-14T05:17:37.991Z,0
2016-11-14T05:18:51.776Z,0
2016-11-14T05:20:04.427Z,0
2016-11-14T05:21:18.144Z,0
2016-11-14T05:22:31.875Z,0
2016-11-14T05:23:45.688Z,0
2016-11-14T05:24:59.393Z,0
2016-11-14T05:26:11.792Z,0
2016-11-14T05:27:25.478Z,0
2016-11-14T05:28:39.167Z,0
2016-11-14T05:29:52.905Z,0
2016-11-14T05:31:06.612Z,0
2016-11-14T05:32:20.305Z,0
2016-11-14T05:33:33.980Z,0
2016-11-14T05:34:46.410Z,0
2016-11-14T05:36:00.330Z,0
2016-11-14T05:37:14.020Z,0
2016-11-14T05:38:27.742Z,0
2016-11-14T05:39:40.231Z,0
2016-11-14T05:40:52.627Z,0
2016-11-14T05:42:06.321Z,0
2016-11-14T05:43:18.713Z,0
2016-11-14T05:44:32.522Z,0
2016-11-14T05:45:46.272Z,0
2016-11-14T05:46:58.678Z,0
2016-11-14T05:48:12.375Z,0
2016-11-14T05:49:26.334Z,0
2016-11-14T05:50:40.028Z,0
2016-11-14T05:51:53.721Z,0
2016-11-14T05:53:07.412Z,0
2016-11-14T05:54:21.095Z,0
2016-11-14T05:55:34.785Z,0
2016-11-14T05:56:47.223Z,0
2016-11-14T05:58:00.986Z,0
2016-11-14T05:59:13.419Z,0
2016-11-14T06:00:56.694Z,0
2016-11-14T06:02:10.397Z,0
2016-11-14T06:03:24.114Z,0
2016-11-14T06:04:35.256Z,0
2016-11-14T06:05:49.091Z,0
2016-11-14T06:07:00.255Z,0
2016-11-14T06:08:12.660Z,0
2016-11-14T06:09:25.059Z,0
2016-11-14T06:10:36.176Z,0
2016-11-14T06:11:49.895Z,0
2016-11-14T06:13:02.559Z,0
2016-11-14T06:14:16.237Z,0
2016-11-14T06:15:29.941Z,0
2016-11-14T06:16:43.666Z,0
2016-11-14T06:17:56.093Z,0
2016-11-14T06:19:09.827Z,5
2016-11-14T06:20:23.530Z,5
2016-11-14T06:21:37.225Z,5
2016-11-14T06:22:50.914Z,5
2016-11-14T06:24:04.596Z,5
2016-11-14T06:25:18.307Z,10
2016-11-14T06:26:32.229Z,10
2016-11-14T06:27:45.913Z,10
2016-11-14T06:28:59.722Z,10
2016-11-14T06:30:13.402Z,15
2016-11-14T06:31:27.138Z,15
2016-11-14T06:32:40.835Z,15
2016-11-14T06:33:53.242Z,20
2016-11-14T06:35:06.930Z,20
2016-11-14T06:36:20.618Z,25
2016-11-14T06:37:34.339Z,25
2016-11-14T06:39:17.590Z,30
2016-11-14T06:40:31.554Z,30
2016-11-14T06:41:44.268Z,35
2016-11-14T06:42:55.409Z,35
2016-11-14T06:44:06.531Z,40
2016-11-14T06:45:20.247Z,40
2016-11-14T06:46:33.997Z,45
2016-11-14T06:47:47.679Z,45
2016-11-14T06:49:01.395Z,50
2016-11-14T06:50:13.808Z,50
2016-11-14T06:51:27.746Z,55
2016-11-14T06:52:41.435Z,60
2016-11-14T06:53:55.117Z,60
2016-11-14T06:55:08.818Z,65
2016-11-14T06:56:22.527Z,65
2016-11-14T06:57:34.968Z,70
2016-11-14T06:58:48.741Z,70
2016-11-14T07:00:01.298Z,75
2016-11-14T07:01:13.714Z,80
2016-11-14T07:02:26.101Z,80
2016-11-14T07:03:38.517Z,85
2016-11-14T07:04:50.908Z,85
2016-11-14T07:06:02.026Z,90
2016-11-14T07:07:14.699Z,95
2016-11-14T07:08:27.096Z,100
2016-11-14T07:09:39.488Z,105
2016-11-14T07:10:51.916Z,105
2016-11-14T07:12:05.593Z,110
2016-11-14T07:13:19.300Z,110
2016-11-14T07:14:32.988Z,115
2016-11-14T07:15:45.564Z,120
2016-11-14T07:16:57.990Z,120
2016-11-14T07:18:11.705Z,125
2016-11-14T07:19:24.100Z,130
2016-11-14T07:20:37.841Z,140
2016-11-14T07:21:51.537Z,145
2016-11-14T07:23:05.237Z,150
2016-11-14T07:24:18.976Z,160
2016-11-14T07:25:30.105Z,155
2016-11-14T07:26:42.495Z,160
2016-11-14T07:27:56.198Z,170
2016-11-14T07:29:09.887Z,180
2016-11-14T07:30:23.561Z,185
2016-11-14T07:31:34.711Z,195
2016-11-14T07:32:48.449Z,200
2016-11-14T07:34:02.164Z,210
2016-11-14T07:35:14.576Z,230
2016-11-14T07:36:27.003Z,235
2016-11-14T07:37:40.982Z,240
2016-11-14T07:38:53.378Z,280
2016-11-14T07:40:07.089Z,305
2016-11-14T07:41:19.761Z,370
2016-11-14T07:42:33.437Z,440
2016-11-14T07:43:47.153Z,525
2016-11-14T07:45:00.841Z,600
2016-11-14T07:46:13.456Z,660
2016-11-14T07:47:27.211Z,735
2016-11-14T07:48:42.459Z,775
2016-11-14T07:49:57.670Z,785
2016-11-14T07:51:12.893Z,790
2016-11-14T07:52:28.199Z,820
2016-11-14T07:53:43.406Z,860
2016-11-14T07:54:57.352Z,875
2016-11-14T07:56:11.490Z,880
2016-11-14T07:57:25.442Z,910
2016-11-14T07:58:39.294Z,890
2016-11-14T07:59:54.511Z,585
2016-11-14T08:01:06.927Z,525
2016-11-14T08:02:20.649Z,705
2016-11-14T08:03:34.337Z,855
2016-11-14T08:04:49.611Z,890
2016-11-14T08:06:04.895Z,905
2016-11-14T08:07:20.140Z,905
2016-11-14T08:08:32.927Z,915
2016-11-14T08:09:48.159Z,950
2016-11-14T08:11:02.127Z,1035
2016-11-14T08:12:17.635Z,1135
2016-11-14T08:13:31.603Z,1170
2016-11-14T08:14:45.528Z,1165
2016-11-14T08:16:01.007Z,1205
2016-11-14T08:17:14.950Z,1160
2016-11-14T08:18:29.067Z,1060
2016-11-14T08:19:44.347Z,1025
2016-11-14T08:20:58.345Z,1005
2016-11-14T08:22:13.577Z,1005
2016-11-14T08:23:27.585Z,985
2016-11-14T08:24:41.663Z,1010
2016-11-14T08:25:55.637Z,1105
2016-11-14T08:27:10.888Z,1135
2016-11-14T08:28:23.501Z,1165
2016-11-14T08:29:37.520Z,1070
2016-11-14T08:30:53.143Z,1055
2016-11-14T08:32:08.412Z,1050
2016-11-14T08:33:23.657Z,1055
2016-11-14T08:34:38.901Z,1085
2016-11-14T08:35:54.140Z,1070
2016-11-14T08:37:09.370Z,1070
2016-11-14T08:38:24.844Z,1065
2016-11-14T08:39:40.084Z,1060
2016-11-14T08:40:54.093Z,1060
2016-11-14T08:42:09.374Z,1050
2016-11-14T08:43:24.627Z,1050
2016-11-14T08:44:39.883Z,1085
2016-11-14T08:45:55.125Z,1040
2016-11-14T08:47:10.353Z,1055
2016-11-14T08:48:25.602Z,1070
2016-11-14T08:49:40.862Z,1080
2016-11-14T08:50:56.114Z,1075
2016-11-14T08:52:10.088Z,1090
2016-11-14T08:53:25.341Z,1095
2016-11-14T08:54:40.738Z,1105
2016-11-14T08:55:56.034Z,1120
2016-11-14T08:57:11.275Z,1145
2016-11-14T08:58:26.604Z,1125
2016-11-14T08:59:41.871Z,1140
2016-11-14T09:00:57.140Z,1155
2016-11-14T09:02:11.113Z,1160
2016-11-14T09:03:26.389Z,1170
2016-11-14T09:04:39.265Z,1175
2016-11-14T09:05:54.548Z,1190
2016-11-14T09:07:07.228Z,1190
2016-11-14T09:08:21.211Z,1180
2016-11-14T09:09:36.574Z,1190
2016-11-14T09:10:51.801Z,1235
2016-11-14T09:12:05.742Z,1250
2016-11-14T09:13:19.717Z,1260
2016-11-14T09:14:34.983Z,1290
2016-11-14T09:15:50.288Z,1290
2016-11-14T09:17:05.545Z,1260
2016-11-14T09:18:20.787Z,1235
2016-11-14T09:19:34.762Z,1205
2016-11-14T09:20:48.716Z,1185
2016-11-14T09:22:02.668Z,1195
2016-11-14T09:23:17.898Z,1205
2016-11-14T09:24:30.492Z,1230
2016-11-14T09:25:43.185Z,1225
2016-11-14T09:26:58.485Z,1255
2016-11-14T09:28:12.445Z,1280
2016-11-14T09:29:25.132Z,1290
2016-11-14T09:30:40.459Z,1325
2016-11-14T09:31:54.423Z,1375
2016-11-14T09:33:09.713Z,1355
2016-11-14T09:34:24.140Z,1320
2016-11-14T09:35:39.483Z,1320
2016-11-14T09:36:53.422Z,1355
2016-11-14T09:38:08.650Z,1360
2016-11-14T09:39:23.943Z,1370
2016-11-14T09:40:39.255Z,1390
2016-11-14T09:41:54.511Z,1400
2016-11-14T09:43:09.756Z,1390
2016-11-14T09:44:25.044Z,1420
2016-11-14T09:45:39.141Z,1470
2016-11-14T09:46:54.412Z,1490
2016-11-14T09:48:09.699Z,1530
2016-11-14T09:49:23.663Z,1520
2016-11-14T09:50:37.699Z,1450
2016-11-14T09:51:53.046Z,1455
2016-11-14T09:53:07.034Z,1485
2016-11-14T09:54:22.281Z,1525
2016-11-14T09:55:37.576Z,1580
2016-11-14T09:56:52.835Z,1625
2016-11-14T09:58:08.101Z,1650
2016-11-14T09:59:23.506Z,1685
2016-11-14T10:00:36.144Z,1740
2016-11-14T10:01:51.439Z,1785
2016-11-14T10:03:06.685Z,1820
2016-11-14T10:04:21.957Z,1850
2016-11-14T10:05:37.195Z,1875
2016-11-14T10:06:51.134Z,1900
2016-11-14T10:08:03.842Z,1840
2016-11-14T10:09:19.327Z,1810
2016-11-14T10:10:34.597Z,1860
2016-11-14T10:11:48.553Z,1885
2016-11-14T10:13:02.507Z,1845
2016-11-14T10:14:16.400Z,1815
2016-11-14T10:15:30.381Z,1810
2016-11-14T10:16:45.936Z,1775
2016-11-14T10:17:59.901Z,1745
2016-11-14T10:19:15.182Z,1690
2016-11-14T10:20:29.159Z,1665
2016-11-14T10:21:44.483Z,1655
2016-11-14T10:22:59.930Z,1665
2016-11-14T10:24:13.945Z,1670
2016-11-14T10:25:29.180Z,1675
2016-11-14T10:26:44.467Z,1660
2016-11-14T10:27:59.710Z,1680
2016-11-14T10:29:12.485Z,1730
2016-11-14T10:30:27.949Z,1720
2016-11-14T10:31:43.209Z,1845
2016-11-14T10:32:57.176Z,1910
2016-11-14T10:34:11.202Z,1820
2016-11-14T10:35:25.175Z,1720
2016-11-14T10:36:37.792Z,1710
2016-11-14T10:37:53.086Z,1770
2016-11-14T10:39:08.329Z,1785
2016-11-14T10:40:22.318Z,1780
2016-11-14T10:41:37.569Z,1805
2016-11-14T10:42:52.875Z,1960
2016-11-14T10:44:08.200Z,2070
2016-11-14T10:45:22.172Z,1990
2016-11-14T10:46:37.452Z,1990
2016-11-14T10:47:52.986Z,1960
2016-11-14T10:49:07.181Z,2035
2016-11-14T10:50:21.174Z,2195
2016-11-14T10:51:36.407Z,2165
2016-11-14T10:52:51.675Z,2195
2016-11-14T10:54:06.989Z,2280
2016-11-14T10:55:22.225Z,2315
2016-11-14T10:56:36.228Z,2245
2016-11-14T10:57:50.150Z,2245
2016-11-14T10:59:02.797Z,2295
2016-11-14T11:00:16.841Z,2230
2016-11-14T11:01:32.127Z,2165
2016-11-14T11:02:46.176Z,2245
2016-11-14T11:04:00.159Z,2370
2016-11-14T11:05:15.451Z,2340
2016-11-14T11:06:30.689Z,2220
2016-11-14T11:07:46.036Z,2200
2016-11-14T11:09:01.366Z,2185
2016-11-14T11:10:15.344Z,2160
2016-11-14T11:11:30.613Z,2235
2016-11-14T11:12:46.117Z,2310
2016-11-14T11:14:01.489Z,2275
2016-11-14T11:15:16.765Z,2320
2016-11-14T11:16:32.000Z,2525
2016-11-14T11:17:44.702Z,2590
2016-11-14T11:19:30.812Z,2515
2016-11-14T11:20:44.694Z,2585
2016-11-14T11:21:58.671Z,2610
2016-11-14T11:23:14.041Z,2580
2016-11-14T11:24:29.328Z,2555
2016-11-14T11:25:43.204Z,2670
2016-11-14T11:26:58.563Z,2670
2016-11-14T11:28:13.864Z,2440
2016-11-14T11:29:29.194Z,2540
2016-11-14T11:30:43.080Z,2630
2016-11-14T11:31:58.352Z,2390
2016-11-14T11:33:12.307Z,2320
2016-11-14T11:34:26.292Z,2325
2016-11-14T11:35:41.656Z,2230
2016-11-14T11:36:56.905Z,2150
2016-11-14T11:38:10.880Z,1745
2016-11-14T11:39:23.696Z,1910
2016-11-14T11:40:37.945Z,2170
2016-11-14T11:41:51.914Z,2245
2016-11-14T11:43:07.155Z,2265
2016-11-14T11:44:22.407Z,2340
2016-11-14T11:45:35.048Z,2310
2016-11-14T11:47:21.226Z,2330
2016-11-14T11:48:35.201Z,2375
2016-11-14T11:49:50.522Z,2290
2016-11-14T11:51:05.821Z,2345
2016-11-14T11:52:21.063Z,2335
2016-11-14T11:53:34.956Z,2265
2016-11-14T11:54:50.236Z,2360
2016-11-14T11:56:05.508Z,2330
2016-11-14T11:57:20.967Z,2370
2016-11-14T11:58:36.212Z,2415
2016-11-14T11:59:50.160Z,2315
2016-11-14T12:01:05.411Z,2205
2016-11-14T12:02:20.707Z,2160
2016-11-14T12:03:34.717Z,2105
2016-11-14T12:04:49.959Z,2020
2016-11-14T12:06:03.965Z,1960
2016-11-14T12:07:19.225Z,1890
2016-11-14T12:08:33.286Z,1935
2016-11-14T12:09:48.563Z,1935
2016-11-14T12:11:02.737Z,1995
2016-11-14T12:12:16.732Z,1875
2016-11-14T12:13:31.991Z,1820
2016-11-14T12:14:45.888Z,1755
2016-11-14T12:15:59.853Z,1740
2016-11-14T12:17:15.324Z,1800
2016-11-14T12:18:30.601Z,1810
2016-11-14T12:19:45.868Z,1780
2016-11-14T12:21:32.226Z,855
2016-11-14T12:22:45.933Z,575
2016-11-14T12:23:58.389Z,525
2016-11-14T12:25:10.905Z,495
2016-11-14T12:26:24.623Z,485
2016-11-14T12:27:38.370Z,490
2016-11-14T12:28:52.147Z,570
2016-11-14T12:30:06.029Z,1055
2016-11-14T12:31:18.660Z,1610
2016-11-14T12:32:32.828Z,1800
2016-11-14T12:33:46.956Z,1825
2016-11-14T12:35:02.239Z,1945
2016-11-14T12:36:17.497Z,1885
2016-11-14T12:37:32.998Z,1640
2016-11-14T12:38:48.497Z,1430
2016-11-14T12:40:02.460Z,1180
2016-11-14T12:41:17.775Z,910
2016-11-14T12:42:30.444Z,710
2016-11-14T12:43:45.747Z,595
2016-11-14T12:44:58.212Z,575
2016-11-14T12:46:10.632Z,555
2016-11-14T12:47:23.052Z,550
2016-11-14T12:48:36.780Z,535
2016-11-14T12:49:50.661Z,525
2016-11-14T12:51:04.441Z,500
2016-11-14T12:52:18.140Z,480
2016-11-14T12:53:31.847Z,460
2016-11-14T12:54:44.612Z,440
2016-11-14T12:55:58.316Z,410
2016-11-14T12:57:10.822Z,345
2016-11-14T12:58:24.539Z,380
2016-11-14T12:59:36.959Z,370
2016-11-14T13:00:50.721Z,375
2016-11-14T13:02:04.443Z,385
2016-11-14T13:03:16.910Z,380
2016-11-14T13:04:29.328Z,380
2016-11-14T13:05:43.082Z,375
2016-11-14T13:06:55.543Z,375
2016-11-14T13:08:08.213Z,370
2016-11-14T13:09:21.922Z,370
2016-11-14T13:10:34.341Z,370
2016-11-14T13:11:46.757Z,370
2016-11-14T13:13:00.494Z,345
2016-11-14T13:14:13.025Z,355
2016-11-14T13:15:24.152Z,345
2016-11-14T13:16:37.966Z,350
2016-11-14T13:17:50.389Z,325
2016-11-14T13:19:02.802Z,335
2016-11-14T13:20:15.248Z,325
2016-11-14T13:21:27.950Z,300
2016-11-14T13:22:41.698Z,315
2016-11-14T13:23:55.416Z,340
2016-11-14T13:25:07.872Z,345
2016-11-14T13:26:21.592Z,340
2016-11-14T13:27:35.324Z,330
2016-11-14T13:28:49.033Z,325
2016-11-14T13:30:02.776Z,320
2016-11-14T13:31:16.464Z,310
2016-11-14T13:32:30.205Z,315
2016-11-14T13:33:43.909Z,305
2016-11-14T13:34:56.327Z,305
2016-11-14T13:36:10.035Z,305
2016-11-14T13:37:22.457Z,305
2016-11-14T13:38:36.180Z,305
2016-11-14T13:39:49.952Z,310
2016-11-14T13:41:02.362Z,315
2016-11-14T13:42:13.496Z,315
2016-11-14T13:43:27.277Z,315
2016-11-14T13:44:39.733Z,320
2016-11-14T13:45:52.160Z,320
2016-11-14T13:47:05.872Z,315
2016-11-14T13:48:19.615Z,315
2016-11-14T13:49:32.030Z,310
2016-11-14T13:51:16.701Z,310
2016-11-14T13:52:30.411Z,310
2016-11-14T13:53:44.118Z,305
2016-11-14T13:54:57.809Z,295
2016-11-14T13:56:11.507Z,290
2016-11-14T13:57:25.235Z,285
2016-11-14T13:58:38.957Z,280
2016-11-14T13:59:52.661Z,275
2016-11-14T14:01:06.350Z,270
2016-11-14T14:02:18.926Z,265
2016-11-14T14:03:32.645Z,265
2016-11-14T14:04:45.066Z,270
2016-11-14T14:05:57.476Z,270
2016-11-14T14:07:11.178Z,265
2016-11-14T14:08:23.767Z,260
2016-11-14T14:09:37.487Z,255
2016-11-14T14:10:51.208Z,250
2016-11-14T14:12:04.913Z,245
2016-11-14T14:13:18.634Z,240
2016-11-14T14:14:32.339Z,240
2016-11-14T14:15:44.753Z,240
2016-11-14T14:16:58.451Z,230
2016-11-14T14:18:12.165Z,220
2016-11-14T14:19:26.005Z,220
2016-11-14T14:20:39.719Z,215
2016-11-14T14:21:53.447Z,210
2016-11-14T14:23:07.191Z,205
2016-11-14T14:24:19.757Z,205
2016-11-14T14:25:32.207Z,205
2016-11-14T14:26:45.919Z,205
2016-11-14T14:27:58.378Z,205
2016-11-14T14:29:12.085Z,205
2016-11-14T14:30:25.803Z,200
2016-11-14T14:31:39.503Z,190
2016-11-14T14:32:51.916Z,175
2016-11-14T14:34:05.672Z,165
2016-11-14T14:35:19.441Z,155
2016-11-14T14:36:33.185Z,145
2016-11-14T14:37:45.595Z,145
2016-11-14T14:38:59.311Z,140
2016-11-14T14:40:13.013Z,140
2016-11-14T14:41:25.593Z,145
2016-11-14T14:42:38.024Z,140
2016-11-14T14:43:51.740Z,135
2016-11-14T14:45:02.863Z,130
2016-11-14T14:46:16.647Z,130
2016-11-14T14:47:29.064Z,120
2016-11-14T14:48:40.246Z,110
2016-11-14T14:49:52.772Z,105
2016-11-14T14:51:06.526Z,105
2016-11-14T14:52:18.921Z,105
2016-11-14T14:53:32.655Z,105
2016-11-14T14:54:45.087Z,105
2016-11-14T14:55:57.706Z,100
2016-11-14T14:57:11.404Z,90
2016-11-14T14:58:25.117Z,85
2016-11-14T14:59:37.538Z,80
2016-11-14T15:00:51.299Z,70
2016-11-14T15:02:05.039Z,65
2016-11-14T15:03:18.760Z,65
2016-11-14T15:04:31.212Z,60
2016-11-14T15:05:43.646Z,60
2016-11-14T15:06:57.339Z,55
2016-11-14T15:08:11.035Z,50
2016-11-14T15:09:24.767Z,45
2016-11-14T15:10:38.503Z,40
2016-11-14T15:11:49.622Z,35
2016-11-14T15:13:03.336Z,35
2016-11-14T15:14:14.822Z,30
2016-11-14T15:15:27.268Z,25
2016-11-14T15:16:40.970Z,25
2016-11-14T15:17:54.676Z,20
2016-11-14T15:19:05.831Z,20
2016-11-14T15:20:19.562Z,20
2016-11-14T15:21:33.283Z,15
2016-11-14T15:22:47.001Z,15
2016-11-14T15:24:00.700Z,15
2016-11-14T15:25:13.123Z,10
2016-11-14T15:26:24.390Z,10
2016-11-14T15:27:38.262Z,10
2016-11-14T15:28:51.977Z,5
2016-11-14T15:30:05.675Z,5
2016-11-14T15:31:18.096Z,5
2016-11-14T15:32:31.845Z,5
2016-11-14T15:33:44.271Z,5
2016-11-14T15:34:56.948Z,5
2016-11-14T15:36:10.656Z,0
2016-11-14T15:37:23.131Z,0
2016-11-14T15:38:36.911Z,0
2016-11-14T15:39:48.058Z,0
2016-11-14T15:41:01.798Z,0
2016-11-14T15:42:14.248Z,0
2016-11-14T15:43:27.935Z,0
2016-11-14T15:44:41.680Z,0
2016-11-14T15:45:54.118Z,0
2016-11-14T15:47:07.834Z,0
2016-11-14T15:48:21.538Z,0
2016-11-14T15:49:32.761Z,0
2016-11-14T15:50:46.483Z,0
2016-11-14T15:52:00.172Z,0
2016-11-14T15:53:12.593Z,0
2016-11-14T15:54:26.522Z,0
2016-11-14T15:55:40.240Z,0
2016-11-14T15:56:53.932Z,0
2016-11-14T15:58:07.649Z,0
2016-11-14T15:59:21.339Z,0
2016-11-14T16:00:35.104Z,0
2016-11-14T16:01:47.592Z,0
2016-11-14T16:03:00.011Z,0
2016-11-14T16:04:13.712Z,0
2016-11-14T16:05:26.232Z,0
2016-11-14T16:06:39.920Z,0
2016-11-14T16:07:53.674Z,0
2016-11-14T16:09:07.373Z,0
2016-11-14T16:10:21.113Z,0
2016-11-14T16:11:33.552Z,0
2016-11-14T16:12:45.984Z,0
2016-11-14T16:13:58.564Z,0
2016-11-14T16:15:12.276Z,0
2016-11-14T16:16:24.682Z,0
2016-11-14T16:17:38.599Z,0
2016-11-14T16:18:52.296Z,0
2016-11-14T16:20:06.005Z,0
2016-11-14T16:21:18.429Z,0
2016-11-14T16:22:32.121Z,0
2016-11-14T16:23:45.829Z,0
2016-11-14T16:24:59.779Z,0
2016-11-14T16:26:12.212Z,0
2016-11-14T16:27:26.031Z,0
2016-11-14T16:28:39.769Z,0
2016-11-14T16:29:53.495Z,0
2016-11-14T16:31:07.273Z,0
2016-11-14T16:32:40.214Z,0
2016-11-14T16:33:54.045Z,0
2016-11-14T16:35:07.785Z,0
2016-11-14T16:36:21.566Z,0
2016-11-14T16:37:35.264Z,0
2016-11-14T16:38:45.117Z,0
2016-11-14T16:39:59.068Z,0
2016-11-14T16:41:10.197Z,0
2016-11-14T16:42:23.957Z,0
2016-11-14T16:43:37.676Z,0
2016-11-14T16:44:51.414Z,0
2016-11-14T16:46:05.144Z,0
2016-11-14T16:47:18.869Z,0
2016-11-14T16:48:32.588Z,0
2016-11-14T16:49:46.337Z,0
2016-11-14T16:51:00.083Z,0
2016-11-14T16:52:12.522Z,0
2016-11-14T16:53:26.236Z,0
2016-11-14T16:54:39.944Z,0
2016-11-14T16:55:53.687Z,0
2016-11-14T16:57:07.433Z,0
2016-11-14T16:58:21.602Z,0
2016-11-14T16:59:35.551Z,0
2016-11-14T17:00:49.305Z,0
2016-11-14T17:02:01.779Z,0
2016-11-14T17:03:15.531Z,0
2016-11-14T17:04:28.053Z,0
2016-11-14T17:05:40.732Z,0
2016-11-14T17:06:54.480Z,0
2016-11-14T17:08:07.133Z,0
2016-11-14T17:09:20.831Z,0
2016-11-14T17:10:33.288Z,0
2016-11-14T17:11:45.736Z,0
2016-11-14T17:12:59.713Z,0
2016-11-14T17:14:12.131Z,0
2016-11-14T17:15:25.838Z,0
2016-11-14T17:16:39.562Z,0
2016-11-14T17:17:53.328Z,0
2016-11-14T17:19:05.757Z,0
2016-11-14T17:20:19.502Z,0
2016-11-14T17:21:33.215Z,0
2016-11-14T17:22:46.924Z,0
2016-11-14T17:24:00.620Z,0
2016-11-14T17:25:14.312Z,0
2016-11-14T17:26:24.167Z,0